EAG5502 VILH-OPGT
Flight info
| Callsign | EAG5502 |
|---|---|
| Flight time | 0h 35m |
| Altitude | 32000 |
| Route | SD DCT BUNGI DCT GT |
| Aircraft | B38M/M-SDE1FGHILORVWXY/HB1 |
Departure
| Time | 2026-04-26 18:05 |
|---|---|
| Airport | Leh Kushok Bakula Rimpochee Airport (VILH) |
Arrival
| Time | 2026-04-26 18:40 |
|---|---|
| Airport | Gilgit Airport (OPGT) |
| Time | Latitude | Longitude | Altitude | Speed | Heading |
|---|---|---|---|---|---|
| 2026-04-26 17:51 | 34.14114 | 77.55211 | 10833 ft | 0 kts | 156° |
| 2026-04-26 18:02 | 34.14111 | 77.55212 | 10833 ft | 2 kts | 156° |
| 2026-04-26 18:02 | 34.14084 | 77.55271 | 10835 ft | 20 kts | 86° |
| 2026-04-26 18:02 | 34.14074 | 77.55402 | 10846 ft | 13 kts | 146° |
| 2026-04-26 18:02 | 34.14052 | 77.55490 | 10853 ft | 9 kts | 85° |
| 2026-04-26 18:03 | 34.14053 | 77.55593 | 10866 ft | 14 kts | 90° |
| 2026-04-26 18:03 | 34.14052 | 77.55717 | 10875 ft | 14 kts | 90° |
| 2026-04-26 18:03 | 34.14052 | 77.55807 | 10876 ft | 8 kts | 90° |
| 2026-04-26 18:03 | 34.14052 | 77.55895 | 10883 ft | 22 kts | 90° |
| 2026-04-26 18:04 | 34.14039 | 77.56065 | 10896 ft | 8 kts | 138° |
| 2026-04-26 18:04 | 34.14024 | 77.56063 | 10896 ft | 4 kts | 226° |
| 2026-04-26 18:04 | 34.13958 | 77.55854 | 10867 ft | 64 kts | 251° |
| 2026-04-26 18:05 | 34.13338 | 77.53728 | 10744 ft | 189 kts | 252° |
| 2026-04-26 18:05 | 34.12903 | 77.52130 | 11209 ft | 212 kts | 257° |
| 2026-04-26 18:05 | 34.12683 | 77.50253 | 11556 ft | 244 kts | 268° |
| 2026-04-26 18:05 | 34.12793 | 77.48115 | 12121 ft | 263 kts | 279° |
| 2026-04-26 18:06 | 34.13156 | 77.45859 | 12635 ft | 285 kts | 282° |
| 2026-04-26 18:06 | 34.13544 | 77.43495 | 13633 ft | 291 kts | 282° |
| 2026-04-26 18:06 | 34.13961 | 77.41079 | 14478 ft | 303 kts | 282° |
| 2026-04-26 18:06 | 34.14560 | 77.38628 | 15430 ft | 305 kts | 292° |
| 2026-04-26 18:07 | 34.15411 | 77.36273 | 16354 ft | 310 kts | 294° |
| 2026-04-26 18:07 | 34.16291 | 77.33920 | 17322 ft | 313 kts | 294° |
| 2026-04-26 18:07 | 34.17199 | 77.31504 | 18296 ft | 318 kts | 294° |
| 2026-04-26 18:07 | 34.17819 | 77.29859 | 18898 ft | 321 kts | 294° |
| 2026-04-26 18:08 | 34.19054 | 77.26597 | 20091 ft | 323 kts | 294° |
| 2026-04-26 18:08 | 34.19994 | 77.24129 | 20964 ft | 325 kts | 294° |
| 2026-04-26 18:08 | 34.20949 | 77.21637 | 21832 ft | 328 kts | 294° |
| 2026-04-26 18:08 | 34.22040 | 77.19206 | 22629 ft | 332 kts | 305° |
| 2026-04-26 18:09 | 34.23520 | 77.17056 | 23468 ft | 334 kts | 309° |
| 2026-04-26 18:09 | 34.25013 | 77.14889 | 24186 ft | 336 kts | 308° |
| 2026-04-26 18:09 | 34.26509 | 77.12705 | 24795 ft | 338 kts | 308° |
| 2026-04-26 18:09 | 34.28008 | 77.10499 | 25347 ft | 341 kts | 308° |
| 2026-04-26 18:10 | 34.29518 | 77.08278 | 25867 ft | 343 kts | 308° |
| 2026-04-26 18:10 | 34.31034 | 77.06046 | 26471 ft | 345 kts | 308° |
| 2026-04-26 18:10 | 34.32561 | 77.03793 | 27018 ft | 348 kts | 308° |
| 2026-04-26 18:10 | 34.34092 | 77.01532 | 27649 ft | 348 kts | 307° |
| 2026-04-26 18:11 | 34.35624 | 76.99269 | 28290 ft | 347 kts | 307° |
| 2026-04-26 18:11 | 34.37155 | 76.97006 | 28949 ft | 346 kts | 307° |
| 2026-04-26 18:11 | 34.38671 | 76.94763 | 29647 ft | 344 kts | 307° |
| 2026-04-26 18:11 | 34.40160 | 76.92552 | 30178 ft | 342 kts | 307° |
| 2026-04-26 18:12 | 34.41656 | 76.90342 | 30820 ft | 339 kts | 307° |
| 2026-04-26 18:12 | 34.43145 | 76.88138 | 31393 ft | 336 kts | 307° |
| 2026-04-26 18:12 | 34.44616 | 76.85960 | 31910 ft | 333 kts | 306° |
| 2026-04-26 18:12 | 34.46084 | 76.83782 | 32274 ft | 336 kts | 306° |
| 2026-04-26 18:13 | 34.47581 | 76.81560 | 32379 ft | 345 kts | 306° |
| 2026-04-26 18:13 | 34.49126 | 76.79266 | 32348 ft | 358 kts | 307° |
| 2026-04-26 18:13 | 34.50727 | 76.76887 | 32342 ft | 370 kts | 307° |
| 2026-04-26 18:14 | 34.54079 | 76.71900 | 32329 ft | 393 kts | 307° |
| 2026-04-26 18:14 | 34.55833 | 76.69288 | 32352 ft | 404 kts | 307° |
| 2026-04-26 18:14 | 34.57619 | 76.66627 | 32342 ft | 411 kts | 307° |
| 2026-04-26 18:15 | 34.61250 | 76.61208 | 32303 ft | 414 kts | 307° |
| 2026-04-26 18:15 | 34.64878 | 76.55786 | 32322 ft | 414 kts | 307° |
| 2026-04-26 18:16 | 34.68510 | 76.50350 | 32300 ft | 414 kts | 307° |
| 2026-04-26 18:16 | 34.73948 | 76.42196 | 32310 ft | 414 kts | 307° |
| 2026-04-26 18:17 | 34.77575 | 76.36745 | 32300 ft | 415 kts | 306° |
| 2026-04-26 18:17 | 34.81206 | 76.31282 | 32278 ft | 415 kts | 306° |
| 2026-04-26 18:18 | 34.84807 | 76.25853 | 32273 ft | 415 kts | 306° |
| 2026-04-26 18:18 | 34.88437 | 76.20375 | 32278 ft | 416 kts | 306° |
| 2026-04-26 18:19 | 34.92062 | 76.14894 | 32278 ft | 415 kts | 306° |
| 2026-04-26 18:19 | 34.95683 | 76.09412 | 32269 ft | 415 kts | 306° |
| 2026-04-26 18:20 | 34.99301 | 76.03924 | 32259 ft | 416 kts | 306° |
| 2026-04-26 18:20 | 35.01701 | 76.00279 | 32232 ft | 415 kts | 306° |
| 2026-04-26 18:21 | 35.06516 | 75.92955 | 32250 ft | 416 kts | 306° |
| 2026-04-26 18:21 | 35.10134 | 75.87442 | 32250 ft | 416 kts | 306° |
| 2026-04-26 18:22 | 35.13745 | 75.81930 | 32234 ft | 416 kts | 306° |
| 2026-04-26 18:22 | 35.17359 | 75.76405 | 32243 ft | 417 kts | 306° |
| 2026-04-26 18:23 | 35.20977 | 75.70867 | 32217 ft | 417 kts | 306° |
| 2026-04-26 18:23 | 35.24593 | 75.65322 | 32222 ft | 417 kts | 306° |
| 2026-04-26 18:24 | 35.28206 | 75.59773 | 32225 ft | 417 kts | 306° |
| 2026-04-26 18:24 | 35.31822 | 75.54211 | 32199 ft | 417 kts | 305° |
| 2026-04-26 18:25 | 35.33354 | 75.51232 | 32194 ft | 412 kts | 292° |
| 2026-04-26 18:25 | 35.34423 | 75.47996 | 32073 ft | 410 kts | 291° |
| 2026-04-26 18:25 | 35.35549 | 75.44739 | 30772 ft | 423 kts | 291° |
| 2026-04-26 18:25 | 35.36702 | 75.41345 | 29309 ft | 439 kts | 291° |
| 2026-04-26 18:26 | 35.37878 | 75.37827 | 27751 ft | 453 kts | 290° |
| 2026-04-26 18:26 | 35.39074 | 75.34218 | 26199 ft | 457 kts | 290° |
| 2026-04-26 18:26 | 35.40257 | 75.30636 | 25392 ft | 447 kts | 290° |
| 2026-04-26 18:26 | 35.41414 | 75.27126 | 25253 ft | 445 kts | 290° |
| 2026-04-26 18:27 | 35.42575 | 75.23600 | 25217 ft | 446 kts | 290° |
| 2026-04-26 18:27 | 35.43736 | 75.20070 | 25239 ft | 446 kts | 290° |
| 2026-04-26 18:27 | 35.44892 | 75.16549 | 25226 ft | 446 kts | 290° |
| 2026-04-26 18:27 | 35.46050 | 75.13018 | 25241 ft | 446 kts | 290° |
| 2026-04-26 18:28 | 35.47207 | 75.09486 | 25219 ft | 446 kts | 290° |
| 2026-04-26 18:28 | 35.48363 | 75.05956 | 25232 ft | 446 kts | 290° |
| 2026-04-26 18:28 | 35.49500 | 75.02477 | 25239 ft | 429 kts | 290° |
| 2026-04-26 18:28 | 35.50584 | 74.99158 | 25244 ft | 409 kts | 290° |
| 2026-04-26 18:29 | 35.51619 | 74.95985 | 25237 ft | 391 kts | 290° |
| 2026-04-26 18:29 | 35.52608 | 74.92947 | 25233 ft | 375 kts | 289° |
| 2026-04-26 18:29 | 35.53556 | 74.90038 | 25245 ft | 360 kts | 290° |
| 2026-04-26 18:29 | 35.54465 | 74.87244 | 25249 ft | 347 kts | 289° |
| 2026-04-26 18:30 | 35.55356 | 74.84498 | 25063 ft | 347 kts | 289° |
| 2026-04-26 18:30 | 35.56262 | 74.81706 | 24336 ft | 357 kts | 289° |
| 2026-04-26 18:30 | 35.57191 | 74.78841 | 23553 ft | 363 kts | 290° |
| 2026-04-26 18:30 | 35.58131 | 74.75941 | 22554 ft | 366 kts | 290° |
| 2026-04-26 18:31 | 35.59075 | 74.73027 | 21626 ft | 368 kts | 290° |
| 2026-04-26 18:31 | 35.60019 | 74.70105 | 20733 ft | 369 kts | 290° |
| 2026-04-26 18:31 | 35.60956 | 74.67209 | 19903 ft | 370 kts | 291° |
| 2026-04-26 18:31 | 35.62099 | 74.64359 | 19187 ft | 366 kts | 305° |
| 2026-04-26 18:32 | 35.63871 | 74.62224 | 18665 ft | 358 kts | 326° |
| 2026-04-26 18:32 | 35.66051 | 74.60722 | 17994 ft | 353 kts | 333° |
| 2026-04-26 18:32 | 35.68212 | 74.59419 | 17289 ft | 350 kts | 336° |
| 2026-04-26 18:32 | 35.70448 | 74.58268 | 16597 ft | 347 kts | 339° |
| 2026-04-26 18:33 | 35.72669 | 74.57225 | 16130 ft | 337 kts | 339° |
| 2026-04-26 18:33 | 35.74837 | 74.56216 | 15569 ft | 330 kts | 339° |
| 2026-04-26 18:33 | 35.77018 | 74.55195 | 14648 ft | 338 kts | 339° |
| 2026-04-26 18:33 | 35.79224 | 74.54163 | 13803 ft | 340 kts | 339° |
| 2026-04-26 18:34 | 35.81444 | 74.53124 | 12889 ft | 342 kts | 339° |
| 2026-04-26 18:34 | 35.83670 | 74.52078 | 12020 ft | 343 kts | 339° |
| 2026-04-26 18:34 | 35.85170 | 74.51372 | 11442 ft | 342 kts | 339° |
| 2026-04-26 18:34 | 35.87347 | 74.50279 | 10596 ft | 341 kts | 332° |
| 2026-04-26 18:35 | 35.89203 | 74.48482 | 9750 ft | 341 kts | 311° |
| 2026-04-26 18:35 | 35.90550 | 74.46088 | 9156 ft | 330 kts | 300° |
| 2026-04-26 18:35 | 35.91581 | 74.43683 | 8958 ft | 309 kts | 298° |
| 2026-04-26 18:35 | 35.92573 | 74.41447 | 8906 ft | 286 kts | 299° |
| 2026-04-26 18:36 | 35.93257 | 74.39257 | 8810 ft | 265 kts | 278° |
| 2026-04-26 18:36 | 35.93092 | 74.37092 | 8665 ft | 247 kts | 250° |
| 2026-04-26 18:36 | 35.92168 | 74.35428 | 8317 ft | 229 kts | 220° |
| 2026-04-26 18:36 | 35.90776 | 74.34677 | 7873 ft | 215 kts | 183° |
| 2026-04-26 18:37 | 35.89424 | 74.35203 | 7504 ft | 202 kts | 139° |
| 2026-04-26 18:37 | 35.88741 | 74.36613 | 7320 ft | 186 kts | 109° |
| 2026-04-26 18:37 | 35.88257 | 74.38044 | 7113 ft | 176 kts | 109° |
| 2026-04-26 18:37 | 35.87929 | 74.39455 | 6899 ft | 169 kts | 102° |
| 2026-04-26 18:38 | 35.87849 | 74.40886 | 6519 ft | 168 kts | 70° |
| 2026-04-26 18:38 | 35.88614 | 74.41864 | 6147 ft | 163 kts | 16° |
| 2026-04-26 18:38 | 35.89692 | 74.41638 | 5757 ft | 164 kts | 321° |
| 2026-04-26 18:38 | 35.90377 | 74.40573 | 5719 ft | 156 kts | 306° |
| 2026-04-26 18:39 | 35.91070 | 74.39551 | 5759 ft | 155 kts | 317° |
| 2026-04-26 18:39 | 35.91788 | 74.38602 | 5691 ft | 150 kts | 306° |
| 2026-04-26 18:39 | 35.92337 | 74.37505 | 5466 ft | 150 kts | 295° |
| 2026-04-26 18:39 | 35.92525 | 74.36252 | 5280 ft | 150 kts | 270° |
| 2026-04-26 18:40 | 35.92324 | 74.34989 | 5012 ft | 148 kts | 251° |
| 2026-04-26 18:40 | 35.91999 | 74.33811 | 4863 ft | 131 kts | 252° |
| 2026-04-26 18:40 | 35.91852 | 74.33265 | 4859 ft | 15 kts | 251° |
| 2026-04-26 18:40 | 35.91875 | 74.33201 | 4859 ft | 8 kts | 339° |
| 2026-04-26 18:41 | 35.91892 | 74.33167 | 4860 ft | 5 kts | 258° |
| 2026-04-26 18:41 | 35.91884 | 74.33142 | 4853 ft | 0 kts | 250° |